AIC930 OMDB-VIDP
Flight info
| Callsign | AIC930 |
|---|---|
| Flight time | 3h 3m |
| Altitude | 41000 |
| Route | IVURO M428 MUNGA A777 VAXIM L301 RASKI L639 LAXOM J61 UUD A347 BUBNU BUBNU7G |
| Aircraft | A359/H-SDE2E3GHIJ3J4J5LM1ORWXY/LB1D1 |
Departure
| Time | 2026-04-30 07:28 |
|---|---|
| Airport | Dubai International Airport (OMDB) |
Arrival
| Time | 2026-04-30 10:31 |
|---|---|
| Airport | Indira Gandhi International Airport (VIDP) |
| Time | Latitude | Longitude | Altitude | Speed | Heading |
|---|---|---|---|---|---|
| 2026-04-30 06:32 | 25.26053 | 55.34204 | 28 ft | 0 kts | 211° |
| 2026-04-30 07:13 | 25.26060 | 55.34209 | 27 ft | 4 kts | 211° |
| 2026-04-30 07:14 | 25.26083 | 55.34224 | 26 ft | 4 kts | 211° |
| 2026-04-30 07:14 | 25.26104 | 55.34239 | 25 ft | 1 kts | 211° |
| 2026-04-30 07:14 | 25.26125 | 55.34249 | 25 ft | 4 kts | 182° |
| 2026-04-30 07:14 | 25.26147 | 55.34242 | 26 ft | 4 kts | 130° |
| 2026-04-30 07:15 | 25.26162 | 55.34219 | 27 ft | 4 kts | 122° |
| 2026-04-30 07:15 | 25.26175 | 55.34195 | 25 ft | 2 kts | 122° |
| 2026-04-30 07:15 | 25.26176 | 55.34194 | 26 ft | 0 kts | 122° |
| 2026-04-30 07:18 | 25.26172 | 55.34199 | 26 ft | 2 kts | 121° |
| 2026-04-30 07:18 | 25.26154 | 55.34232 | 25 ft | 8 kts | 121° |
| 2026-04-30 07:19 | 25.26129 | 55.34309 | 27 ft | 13 kts | 97° |
| 2026-04-30 07:19 | 25.26124 | 55.34422 | 27 ft | 16 kts | 92° |
| 2026-04-30 07:19 | 25.26083 | 55.34542 | 27 ft | 16 kts | 120° |
| 2026-04-30 07:19 | 25.26102 | 55.34646 | 28 ft | 16 kts | 47° |
| 2026-04-30 07:20 | 25.26182 | 55.34739 | 28 ft | 18 kts | 45° |
| 2026-04-30 07:20 | 25.26287 | 55.34818 | 28 ft | 16 kts | 32° |
| 2026-04-30 07:20 | 25.26348 | 55.34897 | 29 ft | 13 kts | 94° |
| 2026-04-30 07:20 | 25.26305 | 55.34993 | 30 ft | 15 kts | 122° |
| 2026-04-30 07:21 | 25.26244 | 55.35101 | 29 ft | 18 kts | 122° |
| 2026-04-30 07:21 | 25.26173 | 55.35228 | 29 ft | 20 kts | 122° |
| 2026-04-30 07:21 | 25.26101 | 55.35356 | 28 ft | 20 kts | 122° |
| 2026-04-30 07:21 | 25.26044 | 55.35459 | 28 ft | 16 kts | 122° |
| 2026-04-30 07:22 | 25.25912 | 55.35693 | 28 ft | 17 kts | 122° |
| 2026-04-30 07:22 | 25.25845 | 55.35811 | 28 ft | 19 kts | 122° |
| 2026-04-30 07:22 | 25.25771 | 55.35942 | 29 ft | 20 kts | 121° |
| 2026-04-30 07:23 | 25.25699 | 55.36071 | 29 ft | 19 kts | 121° |
| 2026-04-30 07:23 | 25.25625 | 55.36202 | 29 ft | 21 kts | 122° |
| 2026-04-30 07:23 | 25.25549 | 55.36337 | 28 ft | 20 kts | 122° |
| 2026-04-30 07:23 | 25.25473 | 55.36472 | 29 ft | 22 kts | 122° |
| 2026-04-30 07:24 | 25.25397 | 55.36609 | 28 ft | 22 kts | 121° |
| 2026-04-30 07:24 | 25.25326 | 55.36735 | 28 ft | 20 kts | 122° |
| 2026-04-30 07:24 | 25.25250 | 55.36869 | 28 ft | 21 kts | 122° |
| 2026-04-30 07:24 | 25.25172 | 55.37012 | 29 ft | 23 kts | 121° |
| 2026-04-30 07:25 | 25.25091 | 55.37155 | 30 ft | 21 kts | 122° |
| 2026-04-30 07:25 | 25.25007 | 55.37301 | 30 ft | 23 kts | 122° |
| 2026-04-30 07:25 | 25.24932 | 55.37435 | 30 ft | 21 kts | 121° |
| 2026-04-30 07:25 | 25.24851 | 55.37579 | 29 ft | 21 kts | 122° |
| 2026-04-30 07:26 | 25.24773 | 55.37718 | 29 ft | 22 kts | 122° |
| 2026-04-30 07:26 | 25.24712 | 55.37834 | 29 ft | 12 kts | 107° |
| 2026-04-30 07:26 | 25.24732 | 55.37884 | 29 ft | 11 kts | 41° |
| 2026-04-30 07:26 | 25.24798 | 55.37932 | 30 ft | 12 kts | 30° |
| 2026-04-30 07:27 | 25.24849 | 55.37943 | 31 ft | 6 kts | 330° |
| 2026-04-30 07:27 | 25.24860 | 55.37927 | 32 ft | 0 kts | 304° |
| 2026-04-30 07:27 | 25.24900 | 55.37861 | 32 ft | 39 kts | 302° |
| 2026-04-30 07:27 | 25.25167 | 55.37369 | 33 ft | 109 kts | 301° |
| 2026-04-30 07:28 | 25.25676 | 55.36455 | 96 ft | 162 kts | 300° |
| 2026-04-30 07:28 | 25.26244 | 55.35423 | 892 ft | 159 kts | 302° |
| 2026-04-30 07:28 | 25.26833 | 55.34355 | 1542 ft | 169 kts | 303° |
| 2026-04-30 07:28 | 25.27466 | 55.33219 | 2033 ft | 182 kts | 305° |
| 2026-04-30 07:29 | 25.28168 | 55.31971 | 2479 ft | 200 kts | 306° |
| 2026-04-30 07:29 | 25.28958 | 55.30668 | 3101 ft | 207 kts | 311° |
| 2026-04-30 07:29 | 25.30108 | 55.29713 | 3848 ft | 211 kts | 338° |
| 2026-04-30 07:29 | 25.31571 | 55.29456 | 4599 ft | 219 kts | 357° |
| 2026-04-30 07:30 | 25.34734 | 55.29552 | 5928 ft | 236 kts | 360° |
| 2026-04-30 07:30 | 25.36396 | 55.29613 | 6660 ft | 241 kts | 359° |
| 2026-04-30 07:30 | 25.38094 | 55.29679 | 7333 ft | 248 kts | 1° |
| 2026-04-30 07:31 | 25.39795 | 55.30162 | 7991 ft | 261 kts | 25° |
| 2026-04-30 07:31 | 25.41244 | 55.31492 | 8457 ft | 285 kts | 47° |
| 2026-04-30 07:31 | 25.42535 | 55.33252 | 8942 ft | 302 kts | 51° |
| 2026-04-30 07:31 | 25.43846 | 55.35116 | 9629 ft | 312 kts | 51° |
| 2026-04-30 07:32 | 25.45205 | 55.37027 | 10275 ft | 322 kts | 50° |
| 2026-04-30 07:32 | 25.46647 | 55.39026 | 10642 ft | 342 kts | 50° |
| 2026-04-30 07:32 | 25.48183 | 55.41134 | 10991 ft | 362 kts | 50° |
| 2026-04-30 07:32 | 25.49785 | 55.43365 | 11352 ft | 378 kts | 51° |
| 2026-04-30 07:33 | 25.51343 | 55.45759 | 11898 ft | 388 kts | 58° |
| 2026-04-30 07:33 | 25.52318 | 55.48550 | 12538 ft | 393 kts | 80° |
| 2026-04-30 07:33 | 25.52319 | 55.51571 | 13182 ft | 395 kts | 103° |
| 2026-04-30 07:33 | 25.51346 | 55.54393 | 13851 ft | 393 kts | 123° |
| 2026-04-30 07:34 | 25.49875 | 55.56948 | 14472 ft | 395 kts | 127° |
| 2026-04-30 07:34 | 25.48347 | 55.59495 | 15067 ft | 400 kts | 127° |
| 2026-04-30 07:34 | 25.46819 | 55.62086 | 15672 ft | 404 kts | 126° |
| 2026-04-30 07:34 | 25.45291 | 55.64715 | 16282 ft | 408 kts | 126° |
| 2026-04-30 07:35 | 25.43759 | 55.67381 | 16900 ft | 413 kts | 126° |
| 2026-04-30 07:35 | 25.42484 | 55.70261 | 17500 ft | 422 kts | 111° |
| 2026-04-30 07:35 | 25.41710 | 55.73418 | 18162 ft | 428 kts | 105° |
| 2026-04-30 07:35 | 25.41036 | 55.76649 | 18711 ft | 433 kts | 105° |
| 2026-04-30 07:36 | 25.40358 | 55.79916 | 19225 ft | 438 kts | 106° |
| 2026-04-30 07:36 | 25.39665 | 55.83215 | 19788 ft | 443 kts | 106° |
| 2026-04-30 07:36 | 25.38960 | 55.86548 | 20355 ft | 448 kts | 107° |
| 2026-04-30 07:36 | 25.38241 | 55.89921 | 20842 ft | 454 kts | 107° |
| 2026-04-30 07:37 | 25.37511 | 55.93342 | 21391 ft | 458 kts | 107° |
| 2026-04-30 07:37 | 25.36776 | 55.96784 | 21976 ft | 462 kts | 107° |
| 2026-04-30 07:37 | 25.36033 | 56.00255 | 22524 ft | 467 kts | 107° |
| 2026-04-30 07:37 | 25.35279 | 56.03767 | 23078 ft | 471 kts | 107° |
| 2026-04-30 07:38 | 25.34518 | 56.07308 | 23586 ft | 476 kts | 107° |
| 2026-04-30 07:38 | 25.33751 | 56.10876 | 24065 ft | 479 kts | 107° |
| 2026-04-30 07:38 | 25.32959 | 56.14469 | 24543 ft | 482 kts | 109° |
| 2026-04-30 07:38 | 25.31984 | 56.18010 | 25043 ft | 483 kts | 112° |
| 2026-04-30 07:39 | 25.30884 | 56.21533 | 25542 ft | 485 kts | 114° |
| 2026-04-30 07:39 | 25.29725 | 56.25038 | 26026 ft | 489 kts | 115° |
| 2026-04-30 07:39 | 25.28527 | 56.28581 | 26514 ft | 492 kts | 115° |
| 2026-04-30 07:39 | 25.27323 | 56.32138 | 26949 ft | 497 kts | 115° |
| 2026-04-30 07:40 | 25.26115 | 56.35724 | 27435 ft | 499 kts | 115° |
| 2026-04-30 07:40 | 25.24913 | 56.39331 | 27948 ft | 501 kts | 114° |
| 2026-04-30 07:40 | 25.23712 | 56.42959 | 28453 ft | 504 kts | 114° |
| 2026-04-30 07:40 | 25.22503 | 56.46611 | 28887 ft | 508 kts | 114° |
| 2026-04-30 07:41 | 25.21289 | 56.50281 | 29316 ft | 511 kts | 114° |
| 2026-04-30 07:41 | 25.20063 | 56.53983 | 29746 ft | 515 kts | 114° |
| 2026-04-30 07:41 | 25.18845 | 56.57661 | 30109 ft | 518 kts | 114° |
| 2026-04-30 07:41 | 25.17560 | 56.61440 | 30456 ft | 520 kts | 115° |
| 2026-04-30 07:42 | 25.16188 | 56.65149 | 30822 ft | 522 kts | 117° |
| 2026-04-30 07:42 | 25.14768 | 56.68840 | 31189 ft | 524 kts | 117° |
| 2026-04-30 07:42 | 25.13348 | 56.72490 | 31527 ft | 526 kts | 117° |
| 2026-04-30 07:42 | 25.11888 | 56.76258 | 31878 ft | 528 kts | 117° |
| 2026-04-30 07:43 | 25.10470 | 56.79948 | 32203 ft | 530 kts | 117° |
| 2026-04-30 07:43 | 25.09041 | 56.83694 | 32599 ft | 531 kts | 116° |
| 2026-04-30 07:43 | 25.07594 | 56.87506 | 32919 ft | 533 kts | 116° |
| 2026-04-30 07:43 | 25.06177 | 56.91244 | 33196 ft | 535 kts | 116° |
| 2026-04-30 07:44 | 25.04739 | 56.95039 | 33511 ft | 537 kts | 116° |
| 2026-04-30 07:44 | 25.03303 | 56.98831 | 33929 ft | 535 kts | 116° |
| 2026-04-30 07:44 | 25.01872 | 57.02606 | 34308 ft | 533 kts | 116° |
| 2026-04-30 07:44 | 25.00440 | 57.06377 | 34653 ft | 532 kts | 117° |
| 2026-04-30 07:45 | 24.99009 | 57.10141 | 35001 ft | 531 kts | 117° |
| 2026-04-30 07:45 | 24.97579 | 57.13896 | 35325 ft | 531 kts | 117° |
| 2026-04-30 07:45 | 24.96148 | 57.17647 | 35639 ft | 531 kts | 117° |
| 2026-04-30 07:45 | 24.94719 | 57.21392 | 35968 ft | 530 kts | 117° |
| 2026-04-30 07:46 | 24.93290 | 57.25133 | 36319 ft | 528 kts | 117° |
| 2026-04-30 07:46 | 24.91866 | 57.28859 | 36667 ft | 527 kts | 117° |
| 2026-04-30 07:46 | 24.90443 | 57.32578 | 36977 ft | 526 kts | 117° |
| 2026-04-30 07:46 | 24.89021 | 57.36292 | 37283 ft | 526 kts | 117° |
| 2026-04-30 07:47 | 24.87600 | 57.39999 | 37602 ft | 525 kts | 117° |
| 2026-04-30 07:47 | 24.86180 | 57.43700 | 37885 ft | 525 kts | 117° |
| 2026-04-30 07:47 | 24.84759 | 57.47399 | 38170 ft | 524 kts | 117° |
| 2026-04-30 07:47 | 24.83338 | 57.51099 | 38462 ft | 523 kts | 117° |
| 2026-04-30 07:48 | 24.81922 | 57.54781 | 38702 ft | 522 kts | 117° |
| 2026-04-30 07:48 | 24.80503 | 57.58466 | 38940 ft | 522 kts | 117° |
| 2026-04-30 07:48 | 24.79089 | 57.62138 | 39164 ft | 521 kts | 117° |
| 2026-04-30 07:48 | 24.77676 | 57.65802 | 39384 ft | 520 kts | 118° |
| 2026-04-30 07:49 | 24.76283 | 57.69412 | 39632 ft | 519 kts | 118° |
| 2026-04-30 07:49 | 24.74877 | 57.73052 | 39863 ft | 518 kts | 118° |
| 2026-04-30 07:49 | 24.73467 | 57.76700 | 40048 ft | 517 kts | 118° |
| 2026-04-30 07:49 | 24.72087 | 57.80357 | 40244 ft | 518 kts | 116° |
| 2026-04-30 07:50 | 24.70861 | 57.84078 | 40416 ft | 519 kts | 113° |
| 2026-04-30 07:50 | 24.69720 | 57.87853 | 40617 ft | 519 kts | 112° |
| 2026-04-30 07:50 | 24.68610 | 57.91625 | 40764 ft | 520 kts | 112° |
| 2026-04-30 07:51 | 24.66353 | 57.99168 | 40803 ft | 518 kts | 113° |
| 2026-04-30 07:51 | 24.64034 | 58.06674 | 40802 ft | 518 kts | 113° |
| 2026-04-30 07:52 | 24.61683 | 58.14157 | 40801 ft | 518 kts | 114° |
| 2026-04-30 07:52 | 24.59325 | 58.21637 | 40795 ft | 518 kts | 114° |
| 2026-04-30 07:53 | 24.56966 | 58.29114 | 40797 ft | 518 kts | 114° |
| 2026-04-30 07:53 | 24.54604 | 58.36591 | 40796 ft | 518 kts | 114° |
| 2026-04-30 07:54 | 24.52238 | 58.44068 | 40792 ft | 518 kts | 114° |
| 2026-04-30 07:54 | 24.49869 | 58.51541 | 40791 ft | 518 kts | 114° |
| 2026-04-30 07:55 | 24.47497 | 58.59009 | 40786 ft | 517 kts | 114° |
| 2026-04-30 07:55 | 24.45129 | 58.66453 | 40790 ft | 516 kts | 114° |
| 2026-04-30 07:56 | 24.42750 | 58.73895 | 40786 ft | 515 kts | 114° |
| 2026-04-30 07:56 | 24.39849 | 58.81026 | 40787 ft | 511 kts | 120° |
| 2026-04-30 07:57 | 24.36746 | 58.88049 | 40788 ft | 511 kts | 121° |
| 2026-04-30 07:57 | 24.33613 | 58.95042 | 40787 ft | 511 kts | 121° |
| 2026-04-30 07:58 | 24.30483 | 59.02033 | 40788 ft | 511 kts | 121° |
| 2026-04-30 07:58 | 24.27356 | 59.09025 | 40787 ft | 509 kts | 121° |
| 2026-04-30 07:59 | 24.24243 | 59.15985 | 40785 ft | 509 kts | 121° |
| 2026-04-30 07:59 | 24.21123 | 59.22949 | 40785 ft | 509 kts | 121° |
| 2026-04-30 08:00 | 24.16455 | 59.33347 | 40787 ft | 509 kts | 121° |
| 2026-04-30 08:00 | 24.13330 | 59.40294 | 40788 ft | 509 kts | 121° |
| 2026-04-30 08:01 | 24.10204 | 59.47233 | 40784 ft | 508 kts | 121° |
| 2026-04-30 08:01 | 24.07083 | 59.54156 | 40782 ft | 507 kts | 121° |
| 2026-04-30 08:02 | 24.02394 | 59.64527 | 40782 ft | 507 kts | 120° |
| 2026-04-30 08:03 | 23.96136 | 59.78337 | 40786 ft | 507 kts | 121° |
| 2026-04-30 08:04 | 23.92999 | 59.85245 | 40780 ft | 507 kts | 120° |
| 2026-04-30 08:04 | 23.89867 | 59.92132 | 40791 ft | 506 kts | 120° |
| 2026-04-30 08:05 | 23.86732 | 59.99016 | 40788 ft | 506 kts | 120° |
| 2026-04-30 08:05 | 23.83594 | 60.05895 | 40798 ft | 506 kts | 120° |
| 2026-04-30 08:06 | 23.80451 | 60.12776 | 40777 ft | 506 kts | 120° |
| 2026-04-30 08:06 | 23.77307 | 60.19649 | 40780 ft | 506 kts | 120° |
| 2026-04-30 08:07 | 23.74156 | 60.26527 | 40783 ft | 506 kts | 120° |
| 2026-04-30 08:07 | 23.71008 | 60.33390 | 40794 ft | 505 kts | 120° |
| 2026-04-30 08:08 | 23.67863 | 60.40236 | 40787 ft | 505 kts | 120° |
| 2026-04-30 08:08 | 23.64715 | 60.47077 | 40786 ft | 505 kts | 120° |
| 2026-04-30 08:09 | 23.62096 | 60.52762 | 40779 ft | 505 kts | 120° |
| 2026-04-30 08:09 | 23.58423 | 60.60722 | 40796 ft | 505 kts | 120° |
| 2026-04-30 08:10 | 23.55261 | 60.67567 | 40774 ft | 505 kts | 120° |
| 2026-04-30 08:10 | 23.52615 | 60.73286 | 40787 ft | 504 kts | 120° |
| 2026-04-30 08:11 | 23.49455 | 60.80107 | 40789 ft | 504 kts | 120° |
| 2026-04-30 08:11 | 23.46295 | 60.86919 | 40786 ft | 504 kts | 120° |
| 2026-04-30 08:12 | 23.43126 | 60.93739 | 40792 ft | 504 kts | 120° |
| 2026-04-30 08:12 | 23.39956 | 61.00553 | 40786 ft | 504 kts | 120° |
| 2026-04-30 08:13 | 23.36802 | 61.07321 | 40787 ft | 505 kts | 120° |
| 2026-04-30 08:13 | 23.33633 | 61.14139 | 40778 ft | 505 kts | 118° |
| 2026-04-30 08:14 | 23.31500 | 61.21424 | 40786 ft | 510 kts | 100° |
| 2026-04-30 08:14 | 23.30632 | 61.29082 | 40782 ft | 511 kts | 97° |
| 2026-04-30 08:15 | 23.29981 | 61.36796 | 40778 ft | 512 kts | 97° |
| 2026-04-30 08:15 | 23.29339 | 61.44506 | 40778 ft | 512 kts | 97° |
| 2026-04-30 08:16 | 23.28665 | 61.52216 | 40775 ft | 512 kts | 97° |
| 2026-04-30 08:16 | 23.27972 | 61.59922 | 40772 ft | 512 kts | 97° |
| 2026-04-30 08:17 | 23.27272 | 61.67625 | 40786 ft | 512 kts | 97° |
| 2026-04-30 08:17 | 23.26569 | 61.75331 | 40786 ft | 512 kts | 97° |
| 2026-04-30 08:18 | 23.25864 | 61.83038 | 40783 ft | 512 kts | 97° |
| 2026-04-30 08:18 | 23.25155 | 61.90742 | 40787 ft | 512 kts | 97° |
| 2026-04-30 08:19 | 23.24442 | 61.98443 | 40780 ft | 511 kts | 97° |
| 2026-04-30 08:19 | 23.23729 | 62.06114 | 40780 ft | 510 kts | 97° |
| 2026-04-30 08:20 | 23.23012 | 62.13781 | 40779 ft | 509 kts | 97° |
| 2026-04-30 08:20 | 23.22291 | 62.21441 | 40780 ft | 509 kts | 97° |
| 2026-04-30 08:21 | 23.21567 | 62.29106 | 40778 ft | 510 kts | 97° |
| 2026-04-30 08:21 | 23.20839 | 62.36770 | 40774 ft | 510 kts | 97° |
| 2026-04-30 08:22 | 23.20106 | 62.44438 | 40777 ft | 510 kts | 97° |
| 2026-04-30 08:22 | 23.19370 | 62.52102 | 40782 ft | 510 kts | 97° |
| 2026-04-30 08:23 | 23.18630 | 62.59772 | 40779 ft | 510 kts | 97° |
| 2026-04-30 08:23 | 23.17886 | 62.67441 | 40778 ft | 510 kts | 97° |
| 2026-04-30 08:24 | 23.17139 | 62.75106 | 40780 ft | 510 kts | 97° |
| 2026-04-30 08:24 | 23.16389 | 62.82767 | 40776 ft | 510 kts | 97° |
| 2026-04-30 08:25 | 23.15633 | 62.90435 | 40776 ft | 510 kts | 97° |
| 2026-04-30 08:25 | 23.14880 | 62.98047 | 40776 ft | 510 kts | 97° |
| 2026-04-30 08:26 | 23.14119 | 63.05697 | 40766 ft | 509 kts | 97° |
| 2026-04-30 08:26 | 23.13351 | 63.13385 | 40772 ft | 508 kts | 97° |
| 2026-04-30 08:27 | 23.12588 | 63.20975 | 40767 ft | 509 kts | 97° |
| 2026-04-30 08:27 | 23.11818 | 63.28611 | 40766 ft | 509 kts | 97° |
| 2026-04-30 08:28 | 23.11042 | 63.36254 | 40780 ft | 509 kts | 97° |
| 2026-04-30 08:28 | 23.10263 | 63.43896 | 40777 ft | 509 kts | 97° |
| 2026-04-30 08:29 | 23.09481 | 63.51532 | 40775 ft | 509 kts | 97° |
| 2026-04-30 08:29 | 23.08695 | 63.59170 | 40769 ft | 509 kts | 97° |
| 2026-04-30 08:30 | 23.07905 | 63.66812 | 40777 ft | 509 kts | 97° |
| 2026-04-30 08:30 | 23.07112 | 63.74445 | 40773 ft | 509 kts | 97° |
| 2026-04-30 08:31 | 23.06314 | 63.82091 | 40777 ft | 510 kts | 97° |
| 2026-04-30 08:31 | 23.05515 | 63.89741 | 40774 ft | 510 kts | 97° |
| 2026-04-30 08:32 | 23.04738 | 63.97395 | 40774 ft | 510 kts | 97° |
| 2026-04-30 08:32 | 23.03965 | 64.05048 | 40785 ft | 510 kts | 97° |
| 2026-04-30 08:33 | 23.03185 | 64.12705 | 40779 ft | 511 kts | 97° |
| 2026-04-30 08:33 | 23.02398 | 64.20363 | 40774 ft | 511 kts | 97° |
| 2026-04-30 08:34 | 23.01606 | 64.28028 | 40786 ft | 511 kts | 97° |
| 2026-04-30 08:34 | 23.00810 | 64.35695 | 40785 ft | 511 kts | 97° |
| 2026-04-30 08:35 | 23.00010 | 64.43357 | 40771 ft | 511 kts | 97° |
| 2026-04-30 08:35 | 22.99207 | 64.51021 | 40772 ft | 511 kts | 97° |
| 2026-04-30 08:36 | 22.98400 | 64.58688 | 40777 ft | 511 kts | 97° |
| 2026-04-30 08:36 | 22.97589 | 64.66354 | 40778 ft | 511 kts | 97° |
| 2026-04-30 08:37 | 22.96774 | 64.74021 | 40771 ft | 511 kts | 97° |
| 2026-04-30 08:37 | 22.95971 | 64.81692 | 40760 ft | 512 kts | 95° |
| 2026-04-30 08:38 | 22.95807 | 64.89407 | 40774 ft | 512 kts | 90° |
| 2026-04-30 08:38 | 22.95837 | 64.97130 | 40775 ft | 512 kts | 90° |
| 2026-04-30 08:39 | 22.95898 | 65.04847 | 40771 ft | 512 kts | 89° |
| 2026-04-30 08:39 | 22.95948 | 65.12561 | 40770 ft | 512 kts | 90° |
| 2026-04-30 08:40 | 22.95986 | 65.20288 | 40779 ft | 511 kts | 90° |
| 2026-04-30 08:40 | 22.96017 | 65.27992 | 40779 ft | 510 kts | 90° |
| 2026-04-30 08:41 | 22.96044 | 65.35683 | 40777 ft | 510 kts | 90° |
| 2026-04-30 08:41 | 22.96068 | 65.43374 | 40782 ft | 510 kts | 90° |
| 2026-04-30 08:42 | 22.96089 | 65.51080 | 40778 ft | 510 kts | 90° |
| 2026-04-30 08:42 | 22.96106 | 65.58774 | 40778 ft | 510 kts | 90° |
| 2026-04-30 08:43 | 22.96119 | 65.66432 | 40783 ft | 510 kts | 90° |
| 2026-04-30 08:43 | 22.96128 | 65.74131 | 40776 ft | 510 kts | 90° |
| 2026-04-30 08:44 | 22.96134 | 65.81828 | 40776 ft | 510 kts | 90° |
| 2026-04-30 08:44 | 22.96136 | 65.89529 | 40776 ft | 510 kts | 90° |
| 2026-04-30 08:45 | 22.96134 | 65.97232 | 40780 ft | 510 kts | 89° |
| 2026-04-30 08:45 | 22.96129 | 66.04930 | 40778 ft | 510 kts | 90° |
| 2026-04-30 08:46 | 22.96120 | 66.12631 | 40781 ft | 510 kts | 90° |
| 2026-04-30 08:46 | 22.96107 | 66.20329 | 40780 ft | 510 kts | 90° |
| 2026-04-30 08:47 | 22.96090 | 66.28026 | 40780 ft | 510 kts | 89° |
| 2026-04-30 08:47 | 22.96070 | 66.35723 | 40776 ft | 510 kts | 89° |
| 2026-04-30 08:48 | 22.96046 | 66.43428 | 40778 ft | 510 kts | 89° |
| 2026-04-30 08:48 | 22.96018 | 66.51130 | 40779 ft | 510 kts | 90° |
| 2026-04-30 08:49 | 22.95987 | 66.58821 | 40782 ft | 510 kts | 89° |
| 2026-04-30 08:49 | 22.95952 | 66.66524 | 40776 ft | 510 kts | 89° |
| 2026-04-30 08:50 | 22.95913 | 66.74227 | 40776 ft | 510 kts | 89° |
| 2026-04-30 08:50 | 22.95870 | 66.81923 | 40778 ft | 510 kts | 89° |
| 2026-04-30 08:51 | 22.95824 | 66.89633 | 40770 ft | 510 kts | 89° |
| 2026-04-30 08:51 | 22.95774 | 66.97337 | 40779 ft | 511 kts | 89° |
| 2026-04-30 08:52 | 22.95775 | 67.05050 | 40781 ft | 511 kts | 89° |
| 2026-04-30 08:52 | 22.95807 | 67.12693 | 40773 ft | 510 kts | 89° |
| 2026-04-30 08:53 | 22.95830 | 67.20381 | 40785 ft | 509 kts | 89° |
| 2026-04-30 08:53 | 22.95841 | 67.28070 | 40776 ft | 509 kts | 89° |
| 2026-04-30 08:54 | 22.95845 | 67.34510 | 40774 ft | 510 kts | 89° |
| 2026-04-30 08:54 | 22.95846 | 67.42203 | 40774 ft | 510 kts | 89° |
| 2026-04-30 08:55 | 22.95843 | 67.49887 | 40778 ft | 510 kts | 89° |
| 2026-04-30 08:55 | 22.95837 | 67.57577 | 40775 ft | 510 kts | 89° |
| 2026-04-30 08:56 | 22.95828 | 67.65267 | 40775 ft | 510 kts | 89° |
| 2026-04-30 08:56 | 22.95815 | 67.72963 | 40786 ft | 510 kts | 89° |
| 2026-04-30 08:57 | 22.95798 | 67.80653 | 40770 ft | 510 kts | 89° |
| 2026-04-30 08:57 | 22.95778 | 67.88343 | 40771 ft | 510 kts | 89° |
| 2026-04-30 08:58 | 22.95780 | 67.96030 | 40772 ft | 510 kts | 89° |
| 2026-04-30 08:58 | 22.95793 | 68.03722 | 40778 ft | 510 kts | 89° |
| 2026-04-30 08:59 | 22.95800 | 68.11413 | 40774 ft | 510 kts | 89° |
| 2026-04-30 08:59 | 22.95800 | 68.19113 | 40778 ft | 510 kts | 89° |
| 2026-04-30 09:00 | 22.95795 | 68.26801 | 40775 ft | 510 kts | 89° |
| 2026-04-30 09:00 | 22.95786 | 68.34452 | 40784 ft | 510 kts | 89° |
| 2026-04-30 09:01 | 22.95704 | 68.42148 | 40791 ft | 511 kts | 91° |
| 2026-04-30 09:01 | 22.95229 | 68.49841 | 40781 ft | 511 kts | 93° |
| 2026-04-30 09:02 | 22.94438 | 68.61362 | 40784 ft | 511 kts | 93° |
| 2026-04-30 09:02 | 22.93971 | 68.69050 | 40791 ft | 511 kts | 92° |
| 2026-04-30 09:03 | 22.93520 | 68.76746 | 40775 ft | 511 kts | 92° |
| 2026-04-30 09:03 | 22.93067 | 68.84438 | 40779 ft | 511 kts | 92° |
| 2026-04-30 09:04 | 22.92608 | 68.92130 | 40785 ft | 511 kts | 92° |
| 2026-04-30 09:04 | 22.92145 | 68.99816 | 40777 ft | 510 kts | 92° |
| 2026-04-30 09:05 | 22.91677 | 69.07500 | 40776 ft | 510 kts | 92° |
| 2026-04-30 09:05 | 22.91207 | 69.15168 | 40790 ft | 510 kts | 92° |
| 2026-04-30 09:06 | 22.90732 | 69.22845 | 40790 ft | 510 kts | 92° |
| 2026-04-30 09:06 | 22.90257 | 69.30476 | 40790 ft | 510 kts | 92° |
| 2026-04-30 09:07 | 22.89775 | 69.38157 | 40783 ft | 511 kts | 92° |
| 2026-04-30 09:07 | 22.89289 | 69.45838 | 40787 ft | 510 kts | 92° |
| 2026-04-30 09:08 | 22.88799 | 69.53522 | 40792 ft | 510 kts | 92° |
| 2026-04-30 09:08 | 22.88306 | 69.61202 | 40791 ft | 511 kts | 92° |
| 2026-04-30 09:09 | 22.87809 | 69.68886 | 40799 ft | 511 kts | 92° |
| 2026-04-30 09:09 | 22.87337 | 69.76574 | 40794 ft | 511 kts | 92° |
| 2026-04-30 09:10 | 22.86900 | 69.84260 | 40791 ft | 511 kts | 92° |
| 2026-04-30 09:10 | 22.86460 | 69.91943 | 40787 ft | 510 kts | 92° |
| 2026-04-30 09:11 | 22.86010 | 69.99617 | 40796 ft | 510 kts | 92° |
| 2026-04-30 09:11 | 22.85555 | 70.07290 | 40786 ft | 510 kts | 92° |
| 2026-04-30 09:12 | 22.85095 | 70.14959 | 40780 ft | 510 kts | 92° |
| 2026-04-30 09:12 | 22.84631 | 70.22641 | 40805 ft | 510 kts | 92° |
| 2026-04-30 09:13 | 22.84163 | 70.30315 | 40797 ft | 510 kts | 92° |
| 2026-04-30 09:13 | 22.83693 | 70.37990 | 40807 ft | 510 kts | 92° |
| 2026-04-30 09:14 | 22.83221 | 70.45619 | 40795 ft | 510 kts | 92° |
| 2026-04-30 09:14 | 22.82743 | 70.53289 | 40808 ft | 510 kts | 92° |
| 2026-04-30 09:15 | 22.82261 | 70.60956 | 40801 ft | 510 kts | 92° |
| 2026-04-30 09:15 | 22.81776 | 70.68618 | 40804 ft | 510 kts | 92° |
| 2026-04-30 09:16 | 22.81328 | 70.76284 | 40793 ft | 509 kts | 89° |
| 2026-04-30 09:16 | 22.82224 | 70.83819 | 40785 ft | 502 kts | 70° |
| 2026-04-30 09:17 | 22.85187 | 70.90567 | 40782 ft | 495 kts | 55° |
| 2026-04-30 09:17 | 22.88922 | 70.96835 | 40794 ft | 495 kts | 53° |
| 2026-04-30 09:18 | 22.92752 | 71.03034 | 40779 ft | 495 kts | 53° |
| 2026-04-30 09:18 | 22.96562 | 71.09251 | 40780 ft | 495 kts | 53° |
| 2026-04-30 09:19 | 23.00344 | 71.15488 | 40764 ft | 495 kts | 53° |
| 2026-04-30 09:19 | 23.04121 | 71.21743 | 40764 ft | 495 kts | 53° |
| 2026-04-30 09:20 | 23.07893 | 71.28001 | 40762 ft | 495 kts | 53° |
| 2026-04-30 09:20 | 23.11665 | 71.34261 | 40757 ft | 495 kts | 53° |
| 2026-04-30 09:21 | 23.15431 | 71.40518 | 40747 ft | 495 kts | 53° |
| 2026-04-30 09:21 | 23.19197 | 71.46782 | 40746 ft | 495 kts | 53° |
| 2026-04-30 09:22 | 23.22958 | 71.53047 | 40745 ft | 495 kts | 53° |
| 2026-04-30 09:22 | 23.26717 | 71.59315 | 40744 ft | 495 kts | 53° |
| 2026-04-30 09:23 | 23.30473 | 71.65587 | 40738 ft | 495 kts | 53° |
| 2026-04-30 09:23 | 23.34232 | 71.71870 | 40732 ft | 495 kts | 53° |
| 2026-04-30 09:24 | 23.37984 | 71.78148 | 40735 ft | 495 kts | 53° |
| 2026-04-30 09:24 | 23.41734 | 71.84433 | 40730 ft | 495 kts | 53° |
| 2026-04-30 09:25 | 23.45481 | 71.90721 | 40727 ft | 495 kts | 53° |
| 2026-04-30 09:25 | 23.49227 | 71.97014 | 40727 ft | 495 kts | 53° |
| 2026-04-30 09:26 | 23.52970 | 72.03309 | 40722 ft | 495 kts | 53° |
| 2026-04-30 09:26 | 23.56709 | 72.09606 | 40722 ft | 495 kts | 53° |
| 2026-04-30 09:27 | 23.60444 | 72.15904 | 40722 ft | 495 kts | 53° |
| 2026-04-30 09:27 | 23.64181 | 72.22214 | 40722 ft | 495 kts | 53° |
| 2026-04-30 09:28 | 23.67910 | 72.28519 | 40724 ft | 495 kts | 53° |
| 2026-04-30 09:28 | 23.71642 | 72.34835 | 40721 ft | 495 kts | 53° |
| 2026-04-30 09:29 | 23.75372 | 72.41156 | 40733 ft | 495 kts | 53° |
| 2026-04-30 09:29 | 23.79074 | 72.47438 | 40733 ft | 495 kts | 53° |
| 2026-04-30 09:30 | 23.82804 | 72.53776 | 40741 ft | 495 kts | 53° |
| 2026-04-30 09:30 | 23.86527 | 72.60108 | 40741 ft | 495 kts | 53° |
| 2026-04-30 09:31 | 23.90246 | 72.66444 | 40742 ft | 495 kts | 53° |
| 2026-04-30 09:31 | 23.93958 | 72.72776 | 40744 ft | 494 kts | 53° |
| 2026-04-30 09:32 | 23.97664 | 72.79102 | 40741 ft | 494 kts | 53° |
| 2026-04-30 09:32 | 24.01375 | 72.85450 | 40757 ft | 494 kts | 53° |
| 2026-04-30 09:33 | 24.05080 | 72.91792 | 40759 ft | 494 kts | 53° |
| 2026-04-30 09:33 | 24.08755 | 72.98092 | 40771 ft | 495 kts | 53° |
| 2026-04-30 09:34 | 24.12453 | 73.04438 | 40765 ft | 495 kts | 53° |
| 2026-04-30 09:34 | 24.16149 | 73.10791 | 40774 ft | 495 kts | 53° |
| 2026-04-30 09:35 | 24.19842 | 73.17145 | 40772 ft | 495 kts | 53° |
| 2026-04-30 09:35 | 24.23532 | 73.23505 | 40783 ft | 495 kts | 53° |
| 2026-04-30 09:36 | 24.27227 | 73.29882 | 40782 ft | 495 kts | 53° |
| 2026-04-30 09:36 | 24.30914 | 73.36250 | 40782 ft | 495 kts | 53° |
| 2026-04-30 09:37 | 24.34597 | 73.42620 | 40793 ft | 495 kts | 53° |
| 2026-04-30 09:37 | 24.38284 | 73.49006 | 40792 ft | 495 kts | 53° |
| 2026-04-30 09:38 | 24.41344 | 73.54313 | 40791 ft | 495 kts | 53° |
| 2026-04-30 09:38 | 24.45022 | 73.60699 | 40792 ft | 495 kts | 53° |
| 2026-04-30 09:39 | 24.48703 | 73.67097 | 40787 ft | 495 kts | 53° |
| 2026-04-30 09:39 | 24.52372 | 73.73484 | 40790 ft | 494 kts | 53° |
| 2026-04-30 09:40 | 24.56035 | 73.79871 | 40785 ft | 494 kts | 53° |
| 2026-04-30 09:40 | 24.59804 | 73.86167 | 40785 ft | 490 kts | 47° |
| 2026-04-30 09:41 | 24.64639 | 73.91225 | 40774 ft | 479 kts | 30° |
| 2026-04-30 09:41 | 24.70322 | 73.94998 | 40773 ft | 477 kts | 26° |
| 2026-04-30 09:42 | 24.76070 | 73.98645 | 40774 ft | 477 kts | 26° |
| 2026-04-30 09:42 | 24.81819 | 74.02300 | 40773 ft | 477 kts | 26° |
| 2026-04-30 09:43 | 24.87567 | 74.05959 | 40771 ft | 477 kts | 26° |
| 2026-04-30 09:43 | 24.93321 | 74.09628 | 40766 ft | 477 kts | 26° |
| 2026-04-30 09:44 | 24.99063 | 74.13293 | 40765 ft | 477 kts | 26° |
| 2026-04-30 09:44 | 25.04813 | 74.16967 | 40765 ft | 477 kts | 26° |
| 2026-04-30 09:45 | 25.10552 | 74.20638 | 40779 ft | 477 kts | 25° |
| 2026-04-30 09:45 | 25.16288 | 74.24312 | 40764 ft | 475 kts | 25° |
| 2026-04-30 09:46 | 25.22003 | 74.27975 | 40758 ft | 475 kts | 25° |
| 2026-04-30 09:46 | 25.27681 | 74.31619 | 40754 ft | 475 kts | 25° |
| 2026-04-30 09:47 | 25.33395 | 74.35290 | 40753 ft | 475 kts | 25° |
| 2026-04-30 09:47 | 25.39108 | 74.38964 | 40747 ft | 475 kts | 25° |
| 2026-04-30 09:48 | 25.44816 | 74.42640 | 40745 ft | 474 kts | 25° |
| 2026-04-30 09:48 | 25.50524 | 74.46319 | 40744 ft | 475 kts | 25° |
| 2026-04-30 09:49 | 25.56226 | 74.49999 | 40735 ft | 475 kts | 25° |
| 2026-04-30 09:49 | 25.61934 | 74.53686 | 40734 ft | 475 kts | 25° |
| 2026-04-30 09:50 | 25.67643 | 74.57378 | 40726 ft | 475 kts | 25° |
| 2026-04-30 09:50 | 25.73347 | 74.61072 | 40728 ft | 475 kts | 25° |
| 2026-04-30 09:51 | 25.79049 | 74.64768 | 40717 ft | 475 kts | 25° |
| 2026-04-30 09:51 | 25.84766 | 74.68478 | 40716 ft | 476 kts | 25° |
| 2026-04-30 09:52 | 25.90478 | 74.72189 | 40717 ft | 476 kts | 25° |
| 2026-04-30 09:52 | 25.96194 | 74.75907 | 40716 ft | 476 kts | 25° |
| 2026-04-30 09:53 | 26.01911 | 74.79629 | 40717 ft | 476 kts | 25° |
| 2026-04-30 09:53 | 26.07623 | 74.83353 | 40722 ft | 476 kts | 25° |
| 2026-04-30 09:54 | 26.13343 | 74.87086 | 40713 ft | 477 kts | 25° |
| 2026-04-30 09:54 | 26.19068 | 74.90826 | 40715 ft | 477 kts | 25° |
| 2026-04-30 09:55 | 26.24797 | 74.94574 | 40715 ft | 477 kts | 25° |
| 2026-04-30 09:55 | 26.30488 | 74.98301 | 40715 ft | 477 kts | 25° |
| 2026-04-30 09:56 | 26.36251 | 75.02080 | 40716 ft | 477 kts | 25° |
| 2026-04-30 09:56 | 26.42154 | 75.05182 | 40723 ft | 467 kts | 11° |
| 2026-04-30 09:57 | 26.48468 | 75.06165 | 40718 ft | 454 kts | 354° |
| 2026-04-30 09:57 | 26.54688 | 75.05309 | 40714 ft | 450 kts | 347° |
| 2026-04-30 09:58 | 26.60881 | 75.04182 | 40711 ft | 451 kts | 347° |
| 2026-04-30 09:58 | 26.67076 | 75.03062 | 40710 ft | 451 kts | 347° |
| 2026-04-30 09:59 | 26.79463 | 75.00829 | 40706 ft | 450 kts | 347° |
| 2026-04-30 10:00 | 26.88729 | 74.99157 | 40705 ft | 450 kts | 347° |
| 2026-04-30 10:01 | 26.98133 | 74.98572 | 40702 ft | 460 kts | 3° |
| 2026-04-30 10:02 | 27.07307 | 75.02266 | 40685 ft | 473 kts | 19° |
| 2026-04-30 10:02 | 27.13284 | 75.05381 | 40686 ft | 474 kts | 18° |
| 2026-04-30 10:03 | 27.19266 | 75.08490 | 40684 ft | 472 kts | 18° |
| 2026-04-30 10:03 | 27.25189 | 75.11566 | 40453 ft | 471 kts | 18° |
| 2026-04-30 10:03 | 27.28166 | 75.13113 | 40212 ft | 470 kts | 18° |
| 2026-04-30 10:04 | 27.31123 | 75.14650 | 39582 ft | 469 kts | 18° |
| 2026-04-30 10:04 | 27.34099 | 75.16196 | 38873 ft | 471 kts | 17° |
| 2026-04-30 10:04 | 27.37073 | 75.17743 | 38168 ft | 471 kts | 17° |
| 2026-04-30 10:04 | 27.40051 | 75.19292 | 37341 ft | 472 kts | 17° |
| 2026-04-30 10:05 | 27.43039 | 75.20848 | 36517 ft | 474 kts | 17° |
| 2026-04-30 10:05 | 27.46032 | 75.22407 | 35730 ft | 474 kts | 16° |
| 2026-04-30 10:05 | 27.49032 | 75.23971 | 34936 ft | 475 kts | 16° |
| 2026-04-30 10:05 | 27.52035 | 75.25541 | 34066 ft | 479 kts | 16° |
| 2026-04-30 10:06 | 27.54963 | 75.27455 | 33105 ft | 497 kts | 27° |
| 2026-04-30 10:06 | 27.57581 | 75.30097 | 32110 ft | 511 kts | 37° |
| 2026-04-30 10:06 | 27.60081 | 75.32988 | 31158 ft | 514 kts | 38° |
| 2026-04-30 10:06 | 27.62562 | 75.35896 | 30224 ft | 514 kts | 38° |
| 2026-04-30 10:07 | 27.65034 | 75.38791 | 29238 ft | 511 kts | 39° |
| 2026-04-30 10:07 | 27.67482 | 75.41668 | 28442 ft | 504 kts | 39° |
| 2026-04-30 10:07 | 27.69906 | 75.44496 | 27717 ft | 499 kts | 39° |
| 2026-04-30 10:07 | 27.72314 | 75.47294 | 26982 ft | 494 kts | 39° |
| 2026-04-30 10:08 | 27.74701 | 75.50067 | 26281 ft | 491 kts | 39° |
| 2026-04-30 10:08 | 27.77070 | 75.52821 | 25568 ft | 487 kts | 40° |
| 2026-04-30 10:08 | 27.79421 | 75.55557 | 24873 ft | 484 kts | 40° |
| 2026-04-30 10:08 | 27.81760 | 75.58283 | 24174 ft | 481 kts | 40° |
| 2026-04-30 10:09 | 27.84077 | 75.60990 | 23470 ft | 478 kts | 40° |
| 2026-04-30 10:09 | 27.86381 | 75.63678 | 22687 ft | 475 kts | 40° |
| 2026-04-30 10:09 | 27.88665 | 75.66345 | 21957 ft | 470 kts | 41° |
| 2026-04-30 10:09 | 27.90923 | 75.68983 | 21250 ft | 465 kts | 41° |
| 2026-04-30 10:10 | 27.93166 | 75.71606 | 20539 ft | 461 kts | 41° |
| 2026-04-30 10:10 | 27.95381 | 75.74196 | 19823 ft | 457 kts | 42° |
| 2026-04-30 10:10 | 27.97580 | 75.76771 | 19128 ft | 454 kts | 42° |
| 2026-04-30 10:10 | 27.99771 | 75.79335 | 18410 ft | 452 kts | 42° |
| 2026-04-30 10:11 | 28.01956 | 75.81899 | 17645 ft | 450 kts | 42° |
| 2026-04-30 10:11 | 28.04120 | 75.84438 | 16879 ft | 446 kts | 42° |
| 2026-04-30 10:11 | 28.06247 | 75.86938 | 16576 ft | 432 kts | 42° |
| 2026-04-30 10:11 | 28.08286 | 75.89340 | 16438 ft | 414 kts | 41° |
| 2026-04-30 10:12 | 28.10238 | 75.91640 | 16310 ft | 397 kts | 41° |
| 2026-04-30 10:12 | 28.12114 | 75.93847 | 16181 ft | 381 kts | 41° |
| 2026-04-30 10:12 | 28.13918 | 75.95971 | 16050 ft | 367 kts | 41° |
| 2026-04-30 10:12 | 28.15658 | 75.98021 | 15898 ft | 354 kts | 41° |
| 2026-04-30 10:13 | 28.17333 | 75.99994 | 15743 ft | 342 kts | 40° |
| 2026-04-30 10:13 | 28.18956 | 76.01905 | 15569 ft | 331 kts | 40° |
| 2026-04-30 10:13 | 28.20538 | 76.03768 | 15281 ft | 325 kts | 40° |
| 2026-04-30 10:13 | 28.22089 | 76.05614 | 14920 ft | 321 kts | 42° |
| 2026-04-30 10:14 | 28.23349 | 76.07702 | 14599 ft | 322 kts | 57° |
| 2026-04-30 10:14 | 28.24371 | 76.09937 | 14184 ft | 324 kts | 59° |
| 2026-04-30 10:14 | 28.26387 | 76.14536 | 13437 ft | 322 kts | 59° |
| 2026-04-30 10:15 | 28.27373 | 76.16775 | 13047 ft | 320 kts | 59° |
| 2026-04-30 10:15 | 28.28365 | 76.19022 | 12672 ft | 317 kts | 59° |
| 2026-04-30 10:15 | 28.29350 | 76.21251 | 12288 ft | 315 kts | 59° |
| 2026-04-30 10:15 | 28.30331 | 76.23467 | 11925 ft | 313 kts | 60° |
| 2026-04-30 10:16 | 28.31300 | 76.25661 | 11569 ft | 310 kts | 60° |
| 2026-04-30 10:16 | 28.32264 | 76.27842 | 11209 ft | 308 kts | 60° |
| 2026-04-30 10:16 | 28.33219 | 76.30003 | 10861 ft | 305 kts | 60° |
| 2026-04-30 10:17 | 28.35100 | 76.34267 | 10184 ft | 299 kts | 61° |
| 2026-04-30 10:17 | 28.36757 | 76.38462 | 9790 ft | 284 kts | 74° |
| 2026-04-30 10:17 | 28.37154 | 76.40629 | 9560 ft | 278 kts | 78° |
| 2026-04-30 10:18 | 28.37487 | 76.42780 | 9273 ft | 275 kts | 79° |
| 2026-04-30 10:18 | 28.37816 | 76.44905 | 8958 ft | 272 kts | 79° |
| 2026-04-30 10:18 | 28.38144 | 76.47005 | 8695 ft | 268 kts | 79° |
| 2026-04-30 10:19 | 28.38792 | 76.51101 | 8399 ft | 262 kts | 79° |
| 2026-04-30 10:19 | 28.39117 | 76.53145 | 8203 ft | 262 kts | 79° |
| 2026-04-30 10:19 | 28.39440 | 76.55181 | 8010 ft | 261 kts | 79° |
| 2026-04-30 10:19 | 28.39761 | 76.57204 | 7815 ft | 259 kts | 79° |
| 2026-04-30 10:20 | 28.40080 | 76.59211 | 7631 ft | 258 kts | 79° |
| 2026-04-30 10:20 | 28.40712 | 76.63201 | 7248 ft | 255 kts | 79° |
| 2026-04-30 10:20 | 28.41026 | 76.65183 | 7072 ft | 254 kts | 79° |
| 2026-04-30 10:21 | 28.41337 | 76.67155 | 6894 ft | 253 kts | 79° |
| 2026-04-30 10:21 | 28.41648 | 76.69122 | 6708 ft | 252 kts | 79° |
| 2026-04-30 10:21 | 28.41957 | 76.71075 | 6518 ft | 250 kts | 79° |
| 2026-04-30 10:21 | 28.42262 | 76.73011 | 6336 ft | 250 kts | 79° |
| 2026-04-30 10:22 | 28.42568 | 76.74953 | 6159 ft | 249 kts | 79° |
| 2026-04-30 10:22 | 28.42871 | 76.76873 | 5983 ft | 248 kts | 79° |
| 2026-04-30 10:22 | 28.43075 | 76.78175 | 5838 ft | 247 kts | 80° |
| 2026-04-30 10:22 | 28.43472 | 76.80704 | 5621 ft | 245 kts | 79° |
| 2026-04-30 10:23 | 28.43769 | 76.82604 | 5430 ft | 244 kts | 79° |
| 2026-04-30 10:23 | 28.44106 | 76.84483 | 5237 ft | 242 kts | 73° |
| 2026-04-30 10:23 | 28.44930 | 76.86104 | 5073 ft | 238 kts | 43° |
| 2026-04-30 10:23 | 28.46350 | 76.86976 | 4909 ft | 233 kts | 10° |
| 2026-04-30 10:24 | 28.47432 | 76.86995 | 4795 ft | 230 kts | 348° |
| 2026-04-30 10:24 | 28.48992 | 76.86583 | 4649 ft | 230 kts | 345° |
| 2026-04-30 10:24 | 28.50492 | 76.86026 | 4536 ft | 229 kts | 339° |
| 2026-04-30 10:24 | 28.52009 | 76.85468 | 4438 ft | 229 kts | 344° |
| 2026-04-30 10:25 | 28.53563 | 76.85065 | 4358 ft | 229 kts | 349° |
| 2026-04-30 10:25 | 28.55142 | 76.84824 | 4262 ft | 229 kts | 354° |
| 2026-04-30 10:25 | 28.56733 | 76.84735 | 4108 ft | 229 kts | 359° |
| 2026-04-30 10:25 | 28.58323 | 76.84851 | 3898 ft | 228 kts | 12° |
| 2026-04-30 10:26 | 28.59867 | 76.85223 | 3770 ft | 228 kts | 21° |
| 2026-04-30 10:26 | 28.61036 | 76.86378 | 3690 ft | 225 kts | 60° |
| 2026-04-30 10:26 | 28.61376 | 76.88082 | 3591 ft | 223 kts | 90° |
| 2026-04-30 10:26 | 28.61086 | 76.89788 | 3487 ft | 215 kts | 107° |
| 2026-04-30 10:27 | 28.60649 | 76.91369 | 3407 ft | 203 kts | 105° |
| 2026-04-30 10:27 | 28.60305 | 76.92887 | 3337 ft | 197 kts | 103° |
| 2026-04-30 10:27 | 28.59973 | 76.94393 | 3099 ft | 195 kts | 103° |
| 2026-04-30 10:27 | 28.59633 | 76.95872 | 2865 ft | 191 kts | 104° |
| 2026-04-30 10:28 | 28.59298 | 76.97313 | 2611 ft | 185 kts | 103° |
| 2026-04-30 10:28 | 28.58979 | 76.98703 | 2356 ft | 177 kts | 102° |
| 2026-04-30 10:28 | 28.58675 | 77.00015 | 2112 ft | 164 kts | 99° |
| 2026-04-30 10:28 | 28.58398 | 77.01221 | 1932 ft | 154 kts | 100° |
| 2026-04-30 10:29 | 28.58127 | 77.02395 | 1744 ft | 152 kts | 99° |
| 2026-04-30 10:29 | 28.57867 | 77.03530 | 1568 ft | 142 kts | 101° |
| 2026-04-30 10:29 | 28.57619 | 77.04604 | 1409 ft | 138 kts | 100° |
| 2026-04-30 10:29 | 28.57384 | 77.05627 | 1260 ft | 132 kts | 103° |
| 2026-04-30 10:30 | 28.57149 | 77.06638 | 1091 ft | 132 kts | 101° |
| 2026-04-30 10:30 | 28.56919 | 77.07620 | 924 ft | 125 kts | 102° |
| 2026-04-30 10:30 | 28.56708 | 77.08573 | 778 ft | 125 kts | 101° |
| 2026-04-30 10:30 | 28.56501 | 77.09448 | 755 ft | 105 kts | 104° |
| 2026-04-30 10:31 | 28.56342 | 77.10143 | 756 ft | 76 kts | 104° |
| 2026-04-30 10:31 | 28.56240 | 77.10579 | 757 ft | 45 kts | 104° |
| 2026-04-30 10:31 | 28.56150 | 77.10828 | 752 ft | 26 kts | 124° |
| 2026-04-30 10:31 | 28.56063 | 77.10946 | 751 ft | 14 kts | 140° |
| 2026-04-30 10:32 | 28.55990 | 77.10949 | 752 ft | 9 kts | 228° |
| 2026-04-30 10:32 | 28.55986 | 77.10875 | 754 ft | 11 kts | 281° |
| 2026-04-30 10:32 | 28.56007 | 77.10780 | 752 ft | 14 kts | 284° |
| 2026-04-30 10:32 | 28.56034 | 77.10664 | 756 ft | 17 kts | 284° |
| 2026-04-30 10:33 | 28.56066 | 77.10524 | 753 ft | 20 kts | 284° |
| 2026-04-30 10:33 | 28.56101 | 77.10369 | 757 ft | 21 kts | 284° |
| 2026-04-30 10:33 | 28.56138 | 77.10201 | 753 ft | 23 kts | 284° |
| 2026-04-30 10:33 | 28.56177 | 77.10026 | 757 ft | 23 kts | 284° |
| 2026-04-30 10:34 | 28.56216 | 77.09856 | 754 ft | 19 kts | 284° |
| 2026-04-30 10:34 | 28.56251 | 77.09702 | 752 ft | 21 kts | 285° |
| 2026-04-30 10:34 | 28.56287 | 77.09550 | 751 ft | 21 kts | 285° |
| 2026-04-30 10:34 | 28.56326 | 77.09384 | 753 ft | 22 kts | 284° |
| 2026-04-30 10:35 | 28.56367 | 77.09209 | 752 ft | 19 kts | 284° |
| 2026-04-30 10:35 | 28.56348 | 77.09105 | 752 ft | 14 kts | 209° |
| 2026-04-30 10:35 | 28.56245 | 77.09071 | 752 ft | 17 kts | 194° |
| 2026-04-30 10:35 | 28.56145 | 77.09024 | 754 ft | 10 kts | 239° |
| 2026-04-30 10:36 | 28.56147 | 77.08933 | 753 ft | 13 kts | 283° |
| 2026-04-30 10:36 | 28.56173 | 77.08827 | 756 ft | 15 kts | 285° |
| 2026-04-30 10:36 | 28.56204 | 77.08699 | 754 ft | 18 kts | 285° |
| 2026-04-30 10:36 | 28.56240 | 77.08549 | 754 ft | 21 kts | 285° |
| 2026-04-30 10:37 | 28.56278 | 77.08386 | 754 ft | 20 kts | 285° |
| 2026-04-30 10:37 | 28.56291 | 77.08275 | 753 ft | 9 kts | 266° |
| 2026-04-30 10:37 | 28.56267 | 77.08203 | 752 ft | 10 kts | 243° |
| 2026-04-30 10:37 | 28.56258 | 77.08184 | 754 ft | 0 kts | 242° |
| 2026-04-30 10:38 | 28.56254 | 77.08175 | 752 ft | 0 kts | 241° |
| 2026-04-30 10:38 | 28.56253 | 77.08175 | 752 ft | 1 kts | 241° |
| 2026-04-30 10:38 | 28.56253 | 77.08173 | 752 ft | 0 kts | 242° |